Time;durP1;ratioP1;P1;durP2;ratioP2;P2;SDS_P1;SDS_P2;PMS_P1;PMS_P2;Temp;Humidity;BMP_temperature;BMP_pressure;BME280_temperature;BME280_humidity;BME280_pressure;Samples;Min_cycle;Max_cycle;Signal;HPM_P1;HPM_P2
2021/07/14 00:01:43;;;;;;;1.34;0.80;;;;;;;15.62;92.42;98824.81;1998403;78;23561;-76
2021/07/14 00:04:46;;;;;;;3.76;0.80;;;;;;;15.59;92.27;98824.91;1997454;81;20208;-76
2021/07/14 00:07:49;;;;;;;5.51;0.80;;;;;;;15.54;92.31;98826.78;1997354;81;20763;-76
2021/07/14 00:10:52;;;;;;;4.46;1.23;;;;;;;15.51;92.39;98825.13;1996669;81;20193;-76
2021/07/14 00:14:16;;;;;;;7.00;1.01;;;;;;;15.51;92.66;98822.53;1997435;81;20926;-76
2021/07/14 00:23:44;;;;;;;2.03;1.01;;;;;;;15.41;92.11;98821.94;2002071;81;20201;-77
2021/07/14 00:26:46;;;;;;;1.33;0.82;;;;;;;15.41;92.28;98823.72;2002505;81;20199;-76
2021/07/14 00:29:53;;;;;;;3.51;0.88;;;;;;;15.37;92.17;98809.88;2001849;81;20387;-76
2021/07/14 00:32:56;;;;;;;2.28;1.10;;;;;;;15.39;92.32;98804.59;2001597;79;25001;-76
2021/07/14 00:35:59;;;;;;;2.59;0.91;;;;;;;15.40;92.25;98788.00;2003057;81;20197;-76
2021/07/14 00:39:03;;;;;;;3.29;0.94;;;;;;;15.40;92.21;98781.00;2002235;81;20572;-76
2021/07/14 00:42:06;;;;;;;1.58;0.90;;;;;;;15.37;92.19;98769.78;2002267;81;20251;-76
2021/07/14 00:45:09;;;;;;;3.63;0.94;;;;;;;15.40;92.24;98767.91;2001226;81;20794;-76
2021/07/14 00:48:13;;;;;;;1.38;0.85;;;;;;;15.38;92.10;98759.28;1997193;78;20900;-76
2021/07/14 00:51:17;;;;;;;2.67;1.14;;;;;;;15.34;92.13;98757.69;1996893;81;20170;-76
2021/07/14 00:54:19;;;;;;;4.21;1.13;;;;;;;15.33;92.44;98757.72;1997236;81;20194;-76
2021/07/14 00:57:25;;;;;;;4.46;1.00;;;;;;;15.32;92.74;98756.88;1997061;81;20751;-76
2021/07/14 01:00:28;;;;;;;2.86;1.00;;;;;;;15.32;92.84;98756.88;1996955;78;21519;-76
2021/07/14 01:03:39;;;;;;;6.60;1.21;;;;;;;15.29;92.74;98759.59;2001790;81;20282;-76
2021/07/14 01:07:13;;;;;;;4.66;1.00;;;;;;;15.29;92.85;98762.22;2001866;81;20219;-76
2021/07/14 01:10:34;;;;;;;4.95;1.74;;;;;;;15.31;93.00;98760.41;2001909;81;21024;-76
2021/07/14 01:13:51;;;;;;;4.16;1.29;;;;;;;15.35;93.09;98761.16;2002428;81;20610;-77
2021/07/14 01:17:00;;;;;;;4.64;1.05;;;;;;;15.36;93.06;98765.47;1998158;78;22148;-76
2021/07/14 01:20:18;;;;;;;3.28;1.14;;;;;;;15.36;93.04;98766.31;1997519;81;20174;-76
2021/07/14 01:23:34;;;;;;;5.89;1.20;;;;;;;15.36;93.04;98775.94;1996538;81;20765;-77
2021/07/14 01:27:09;;;;;;;4.20;1.13;;;;;;;15.34;93.02;98772.50;1996890;81;20159;-76
2021/07/14 01:30:14;;;;;;;3.70;1.33;;;;;;;15.29;92.94;98759.59;2000978;81;20174;-75
2021/07/14 01:33:20;;;;;;;9.31;1.30;;;;;;;15.27;92.95;98757.94;2000216;78;20815;-77
2021/07/14 01:36:24;;;;;;;3.89;1.40;;;;;;;15.26;92.97;98754.47;2001659;81;20959;-76
2021/07/14 01:39:30;;;;;;;5.46;1.48;;;;;;;15.26;93.01;98764.94;2001927;81;20498;-76
2021/07/14 01:42:33;;;;;;;4.16;1.15;;;;;;;15.23;92.97;98754.56;2001905;81;20306;-76
2021/07/14 01:45:37;;;;;;;7.61;1.61;;;;;;;15.22;92.93;98744.16;1999869;78;20182;-76
2021/07/14 01:48:42;;;;;;;5.81;1.46;;;;;;;15.18;93.03;98747.78;1997280;81;20202;-77
2021/07/14 01:51:53;;;;;;;5.49;1.46;;;;;;;15.18;93.16;98750.38;1996831;81;20765;-77
2021/07/14 01:54:58;;;;;;;4.66;1.54;;;;;;;15.16;93.31;98753.06;1996572;81;20283;-76
2021/07/14 01:58:02;;;;;;;2.22;1.10;;;;;;;15.17;93.46;98757.38;1996829;81;20226;-77
2021/07/14 02:01:06;;;;;;;2.69;1.29;;;;;;;15.19;93.40;98744.25;1996951;78;22771;-75
2021/07/14 02:04:30;;;;;;;4.16;1.30;;;;;;;15.19;93.34;98731.19;2003305;81;20431;-77
2021/07/14 02:07:35;;;;;;;8.30;1.48;;;;;;;15.18;93.28;98714.63;2003772;81;20237;-76
2021/07/14 02:10:40;;;;;;;4.20;1.46;;;;;;;15.15;93.26;98722.59;2003283;81;20219;-76
2021/07/14 02:13:43;;;;;;;3.33;1.01;;;;;;;15.10;93.24;98727.97;2003042;81;20255;-77
2021/07/14 02:16:49;;;;;;;1.71;1.29;;;;;;;15.09;93.34;98731.50;1999669;78;22754;-77
2021/07/14 02:20:01;;;;;;;1.38;1.00;;;;;;;15.07;93.27;98741.13;1999148;81;20281;-77
2021/07/14 02:23:05;;;;;;;4.84;1.06;;;;;;;15.08;93.50;98758.56;1998756;81;20561;-76
2021/07/14 02:26:07;;;;;;;3.03;1.10;;;;;;;15.14;93.39;98761.88;1998906;81;20280;-77
2021/07/14 02:29:10;;;;;;;4.65;1.10;;;;;;;15.15;93.43;98755.72;1998417;81;20221;-77
2021/07/14 02:32:17;;;;;;;2.79;1.17;;;;;;;15.14;93.23;98754.88;2002021;78;21002;-77
2021/07/14 02:35:21;;;;;;;3.20;1.26;;;;;;;15.15;93.34;98764.44;2004401;81;20193;-77
2021/07/14 02:38:28;;;;;;;4.41;1.40;;;;;;;15.16;93.28;98770.50;2004218;81;20235;-76
2021/07/14 02:41:47;;;;;;;5.70;1.30;;;;;;;15.16;93.22;98765.28;2004542;81;20672;-76
2021/07/14 02:44:50;;;;;;;2.54;0.96;;;;;;;15.14;93.10;98754.88;2003885;81;20208;-76
2021/07/14 02:47:54;;;;;;;2.58;1.35;;;;;;;15.15;93.33;98759.19;1998218;78;24147;-76
2021/07/14 02:50:59;;;;;;;2.40;1.11;;;;;;;15.16;93.54;98766.13;1998685;81;20179;-76
2021/07/14 02:54:05;;;;;;;4.31;1.05;;;;;;;15.18;93.58;98772.16;1998487;81;20917;-77
2021/07/14 02:57:13;;;;;;;2.20;1.10;;;;;;;15.19;93.52;98771.25;1998902;81;20259;-76
2021/07/14 03:00:16;;;;;;;5.66;1.26;;;;;;;15.23;93.55;98766.78;1999057;81;20178;-76
2021/07/14 03:03:22;;;;;;;4.39;1.15;;;;;;;15.22;93.52;98757.22;2002670;81;20374;-76
2021/07/14 03:06:31;;;;;;;4.59;1.30;;;;;;;15.21;93.52;98750.28;2003543;81;20265;-78
2021/07/14 03:09:39;;;;;;;5.97;1.24;;;;;;;15.20;93.50;98746.81;2002177;81;20173;-77
2021/07/14 03:12:50;;;;;;;4.26;1.08;;;;;;;15.22;93.45;98742.38;2002757;81;20271;-76
2021/07/14 03:15:54;;;;;;;4.50;1.10;;;;;;;15.22;93.51;98736.31;2001531;79;23264;-77
2021/07/14 03:18:57;;;;;;;2.95;1.01;;;;;;;15.23;93.40;98731.00;1998116;81;20295;-76
2021/07/14 03:22:00;;;;;;;5.72;1.20;;;;;;;15.22;93.39;98725.84;1997849;81;20291;-76
2021/07/14 03:25:05;;;;;;;8.52;1.16;;;;;;;15.19;93.43;98718.09;1997346;81;21232;-76
2021/07/14 03:28:08;;;;;;;3.24;0.86;;;;;;;15.14;93.38;98718.25;1997812;81;21203;-76
2021/07/14 03:31:12;;;;;;;4.85;0.90;;;;;;;15.13;93.61;98723.53;1998047;78;23680;-76
2021/07/14 03:34:15;;;;;;;3.16;0.91;;;;;;;15.09;93.58;98734.13;2002917;81;20205;-77
2021/07/14 03:37:19;;;;;;;6.49;0.86;;;;;;;15.04;93.61;98729.91;2003475;81;20268;-77
2021/07/14 03:40:23;;;;;;;3.10;0.86;;;;;;;15.03;93.75;98734.28;2002223;81;20255;-76
2021/07/14 03:43:27;;;;;;;4.14;0.90;;;;;;;15.04;93.87;98741.22;2002478;81;20239;-77
2021/07/14 03:46:30;;;;;;;2.46;1.00;;;;;;;15.06;94.00;98744.66;2001670;78;20675;-76
2021/07/14 03:49:34;;;;;;;3.92;1.00;;;;;;;15.10;94.03;98740.19;1998892;81;20379;-76
2021/07/14 03:52:37;;;;;;;3.72;1.20;;;;;;;15.14;94.18;98751.41;2002069;81;20267;-76
2021/07/14 03:55:40;;;;;;;5.09;1.25;;;;;;;15.17;94.24;98748.69;2002745;81;20193;-76
2021/07/14 03:58:44;;;;;;;5.00;1.14;;;;;;;15.18;94.42;98753.00;2002107;81;20254;-76
2021/07/14 04:01:48;;;;;;;5.79;1.35;;;;;;;15.21;94.60;98747.66;1998745;81;22275;-76
2021/07/14 04:04:51;;;;;;;3.67;1.23;;;;;;;15.23;94.60;98751.94;1997275;81;20202;-77
2021/07/14 04:07:55;;;;;;;4.20;1.10;;;;;;;15.27;94.52;98760.56;1997230;81;20251;-76
2021/07/14 04:10:58;;;;;;;2.13;1.17;;;;;;;15.30;94.53;98757.84;1997227;81;20252;-76
2021/07/14 04:14:01;;;;;;;1.67;1.27;;;;;;;15.29;94.29;98748.28;1997848;81;20186;-77
2021/07/14 04:17:04;;;;;;;9.45;1.27;;;;;;;15.31;93.89;98746.47;1999546;78;28549;-76
2021/07/14 04:20:07;;;;;;;2.31;1.34;;;;;;;15.34;93.60;98752.44;2002623;81;20178;-76
2021/07/14 04:23:11;;;;;;;3.63;1.26;;;;;;;15.37;93.47;98757.56;2002806;81;20275;-76
2021/07/14 04:26:13;;;;;;;4.20;1.10;;;;;;;15.40;93.34;98753.97;2002114;81;20182;-76
2021/07/14 04:29:17;;;;;;;4.29;1.23;;;;;;;15.43;93.31;98756.50;2002718;81;20205;-76
2021/07/14 04:32:19;;;;;;;1.36;1.10;;;;;;;15.45;93.34;98756.47;1997739;78;23065;-76
2021/07/14 04:35:22;;;;;;;5.39;1.75;;;;;;;15.45;93.23;98752.09;2002671;81;20185;-76
2021/07/14 04:38:24;;;;;;;4.63;1.40;;;;;;;15.45;93.26;98746.84;2001974;81;20511;-76
2021/07/14 04:41:27;;;;;;;4.18;1.08;;;;;;;15.46;93.10;98753.78;2002201;81;20219;-76
2021/07/14 04:44:33;;;;;;;2.81;1.31;;;;;;;15.49;92.99;98760.69;2002339;81;20612;-76
2021/07/14 04:47:35;;;;;;;3.35;1.34;;;;;;;15.54;93.04;98762.22;2002061;78;33665;-76
2021/07/14 04:50:38;;;;;;;2.60;1.38;;;;;;;15.59;93.05;98759.47;2002670;81;20237;-78
2021/07/14 04:53:41;;;;;;;5.29;1.41;;;;;;;15.58;92.66;98758.59;2002004;81;20190;-77
2021/07/14 04:56:45;;;;;;;1.89;1.31;;;;;;;15.57;92.72;98751.66;2002702;81;20552;-77
2021/07/14 04:59:48;;;;;;;3.49;1.94;;;;;;;15.58;92.66;98750.72;2002086;81;20181;-77
2021/07/14 05:02:51;;;;;;;10.27;2.11;;;;;;;15.62;92.65;98749.78;2001352;78;21798;-77
2021/07/14 05:05:53;;;;;;;4.11;1.48;;;;;;;15.67;92.63;98763.53;2001927;81;20607;-77
2021/07/14 05:08:58;;;;;;;2.94;1.79;;;;;;;15.70;92.81;98752.09;2002272;81;20668;-77
2021/07/14 05:12:00;;;;;;;3.64;1.86;;;;;;;15.74;92.60;98760.69;2002181;80;20158;-77
2021/07/14 05:15:04;;;;;;;8.39;1.81;;;;;;;15.79;92.55;98759.63;2001910;80;20724;-77
2021/07/14 05:18:06;;;;;;;3.13;2.08;;;;;;;15.82;92.34;98764.78;2002490;77;20207;-77
2021/07/14 05:21:09;;;;;;;5.60;1.85;;;;;;;15.85;92.10;98769.03;2001474;81;20834;-77
2021/07/14 05:24:11;;;;;;;5.63;2.04;;;;;;;15.83;91.76;98773.47;2005634;80;20592;-77
2021/07/14 05:27:14;;;;;;;8.54;2.30;;;;;;;15.82;91.85;98759.53;2002165;80;20181;-76
2021/07/14 05:30:17;;;;;;;5.21;2.25;;;;;;;15.83;91.68;98761.25;2000616;80;20182;-77
2021/07/14 05:33:20;;;;;;;3.86;2.17;;;;;;;15.76;90.85;98767.59;2003780;81;20185;-77
2021/07/14 05:36:23;;;;;;;3.66;2.10;;;;;;;15.74;90.91;98763.31;2001552;81;20206;-76
2021/07/14 05:39:26;;;;;;;5.29;2.29;;;;;;;15.79;91.00;98764.84;2001953;81;21089;-76
2021/07/14 05:42:28;;;;;;;10.99;2.34;;;;;;;15.80;90.85;98769.22;2002006;81;20199;-77
2021/07/14 05:45:31;;;;;;;9.15;2.34;;;;;;;15.89;90.74;98778.50;2001512;78;23957;-77
2021/07/14 05:48:34;;;;;;;3.83;2.34;;;;;;;15.87;90.34;98775.94;2001881;81;20237;-77
2021/07/14 05:51:37;;;;;;;4.78;1.70;;;;;;;15.91;90.13;98785.38;2002651;81;20291;-77
2021/07/14 05:54:41;;;;;;;5.47;2.29;;;;;;;15.89;89.96;98778.50;2003103;81;21332;-77
2021/07/14 05:57:44;;;;;;;4.30;2.11;;;;;;;15.92;89.72;98774.00;2002746;81;20235;-77
2021/07/14 06:00:48;;;;;;;2.36;1.70;;;;;;;15.96;89.61;98772.09;2001955;78;20244;-76
2021/07/14 06:03:50;;;;;;;7.11;2.01;;;;;;;16.04;89.27;98753.53;2003217;81;20185;-76
2021/07/14 06:06:53;;;;;;;4.71;1.66;;;;;;;16.10;89.01;98755.91;2003149;80;20941;-79
2021/07/14 06:09:56;;;;;;;2.50;1.55;;;;;;;16.13;88.63;98756.63;2003328;81;20199;-76
2021/07/14 06:12:59;;;;;;;4.93;2.20;;;;;;;16.10;88.56;98764.63;2002736;81;20174;-77
2021/07/14 06:16:02;;;;;;;4.78;1.90;;;;;;;16.04;87.92;98770.09;2001726;78;38250;-77
2021/07/14 06:19:06;;;;;;;4.69;1.71;;;;;;;16.06;88.13;98770.03;2002086;81;20773;-75
2021/07/14 06:22:09;;;;;;;1.99;1.65;;;;;;;16.13;88.27;98772.34;2005467;80;20216;-75
2021/07/14 06:25:12;;;;;;;5.21;2.13;;;;;;;16.19;88.33;98773.91;2002759;81;20271;-76
2021/07/14 06:28:15;;;;;;;7.82;2.13;;;;;;;16.17;87.94;98773.97;2000993;81;20199;-76
2021/07/14 06:31:17;;;;;;;5.45;1.88;;;;;;;16.22;87.86;98771.16;2000053;78;21052;-75
2021/07/14 06:34:21;;;;;;;7.63;2.42;;;;;;;16.23;87.62;98762.41;2001317;81;20575;-75
2021/07/14 06:37:24;;;;;;;3.78;1.73;;;;;;;16.23;87.19;98760.63;2004038;80;21023;-75
2021/07/14 06:40:27;;;;;;;7.49;2.17;;;;;;;16.25;87.44;98760.56;2001270;81;20747;-75
2021/07/14 06:43:42;;;;;;;5.53;2.10;;;;;;;16.24;87.36;98751.84;2000623;80;20314;-76
2021/07/14 06:46:44;;;;;;;3.19;2.46;;;;;;;16.21;87.00;98754.59;1999860;78;20257;-76
2021/07/14 06:49:47;;;;;;;6.51;1.96;;;;;;;16.22;87.42;98758.94;2000690;80;20178;-76
2021/07/14 06:52:50;;;;;;;3.84;2.03;;;;;;;16.29;87.46;98765.63;2000916;81;20193;-75
2021/07/14 06:55:52;;;;;;;7.19;2.15;;;;;;;16.32;87.50;98764.66;2001310;81;20840;-75
2021/07/14 06:58:55;;;;;;;3.65;1.77;;;;;;;16.42;87.79;98767.81;2000417;80;20210;-75
2021/07/14 07:02:01;;;;;;;2.94;2.05;;;;;;;16.52;87.71;98767.41;2000977;78;20212;-75
2021/07/14 07:05:05;;;;;;;3.86;2.00;;;;;;;16.53;86.75;98763.88;2001282;81;20219;-75
2021/07/14 07:08:07;;;;;;;3.08;1.86;;;;;;;16.56;86.69;98768.13;2000667;81;20251;-75
2021/07/14 07:11:10;;;;;;;2.74;2.14;;;;;;;16.55;86.17;98769.03;2000894;80;20182;-75
2021/07/14 07:14:13;;;;;;;3.90;1.79;;;;;;;16.54;85.93;98776.06;2000633;80;20251;-76
2021/07/14 07:17:15;;;;;;;2.67;1.94;;;;;;;16.57;85.86;98785.56;1999948;78;20326;-76
2021/07/14 07:20:18;;;;;;;5.22;1.90;;;;;;;16.56;85.81;98781.25;2000701;81;20213;-76
2021/07/14 07:23:22;;;;;;;3.81;2.21;;;;;;;16.54;85.75;98778.69;2001336;81;20166;-75
2021/07/14 07:26:26;;;;;;;6.31;2.28;;;;;;;16.44;85.61;98776.44;2001069;81;20213;-76
2021/07/14 07:29:44;;;;;;;3.26;2.01;;;;;;;16.44;86.16;98768.59;2001411;81;20188;-76
2021/07/14 07:32:46;;;;;;;6.13;2.01;;;;;;;16.52;86.61;98775.25;2001259;77;22699;-75
2021/07/14 07:35:49;;;;;;;3.44;2.06;;;;;;;16.57;86.78;98768.06;2003088;80;20201;-76
2021/07/14 07:38:52;;;;;;;2.20;2.00;;;;;;;16.56;86.23;98779.47;2002273;81;20243;-76
2021/07/14 07:41:56;;;;;;;3.44;1.91;;;;;;;16.59;86.34;98778.50;2002893;81;20200;-76
2021/07/14 07:44:59;;;;;;;5.84;2.31;;;;;;;16.56;85.83;98773.38;2002606;81;20319;-76
2021/07/14 07:48:02;;;;;;;5.66;1.94;;;;;;;16.55;85.92;98772.53;1991956;78;20199;-76
2021/07/14 07:51:06;;;;;;;3.47;2.29;;;;;;;16.53;86.10;98774.34;1992341;81;20705;-76
2021/07/14 07:54:08;;;;;;;6.14;2.20;;;;;;;16.56;86.51;98773.38;1993130;81;20729;-76
2021/07/14 07:57:11;;;;;;;3.76;2.34;;;;;;;16.56;86.54;98774.22;1993279;81;20780;-76
2021/07/14 08:00:19;;;;;;;2.19;1.99;;;;;;;16.56;86.47;98773.38;1992509;80;20194;-76
2021/07/14 08:03:21;;;;;;;2.45;2.25;;;;;;;16.61;86.76;98782.75;2004530;81;20185;-76
2021/07/14 08:06:24;;;;;;;3.33;2.24;;;;;;;16.62;86.56;98775.75;2002408;80;20166;-77
2021/07/14 08:09:26;;;;;;;2.36;2.16;;;;;;;16.59;86.14;98770.63;2002427;81;20273;-75
2021/07/14 08:12:29;;;;;;;2.58;1.90;;;;;;;16.51;85.89;98768.28;2003484;81;20173;-77
2021/07/14 08:15:32;;;;;;;3.55;2.28;;;;;;;16.56;86.37;98766.38;2001316;78;22378;-76
2021/07/14 08:18:35;;;;;;;3.58;2.30;;;;;;;16.54;86.42;98772.59;2002684;81;20282;-81
2021/07/14 08:21:38;;;;;;;6.97;2.59;;;;;;;16.53;86.24;98773.50;2002849;80;20354;-77
2021/07/14 08:24:40;;;;;;;5.44;2.46;;;;;;;16.56;86.40;98771.59;2002971;81;20252;-77
2021/07/14 08:27:43;;;;;;;8.41;2.79;;;;;;;16.58;86.54;98782.03;2002463;81;20255;-78
2021/07/14 08:30:46;;;;;;;6.40;2.53;;;;;;;16.60;86.82;98785.44;2001014;78;38607;-80
2021/07/14 08:33:49;;;;;;;3.55;2.69;;;;;;;16.57;86.65;98786.41;2003038;81;20215;-76
2021/07/14 08:36:52;;;;;;;7.60;2.55;;;;;;;16.57;86.70;98773.31;2002033;81;20182;-76
2021/07/14 08:39:56;;;;;;;6.74;2.22;;;;;;;16.58;86.59;98772.41;1999975;81;20399;-77
2021/07/14 08:43:01;;;;;;;4.10;2.39;;;;;;;16.60;86.40;98777.56;2001821;81;21279;-76
2021/07/14 08:46:04;;;;;;;5.13;2.36;;;;;;;16.65;86.67;98788.72;2000819;80;38798;-76
2021/07/14 08:49:07;;;;;;;5.03;2.55;;;;;;;16.68;86.41;98783.41;2003079;81;20239;-76
2021/07/14 08:52:10;;;;;;;6.84;3.03;;;;;;;16.67;86.58;98786.09;2002201;81;20203;-77
2021/07/14 08:55:14;;;;;;;5.91;2.94;;;;;;;16.71;86.66;98791.16;2002519;81;20727;-76
2021/07/14 08:58:19;;;;;;;8.81;3.30;;;;;;;16.70;87.00;98794.72;2002546;81;20213;-77
2021/07/14 09:01:22;;;;;;;5.60;3.75;;;;;;;16.69;87.41;98800.84;2000563;78;56423;-75
2021/07/14 09:04:25;;;;;;;4.69;3.54;;;;;;;16.67;87.82;98805.28;2002492;81;20182;-78
2021/07/14 09:07:27;;;;;;;7.88;3.42;;;;;;;16.63;87.90;98816.78;2001848;81;20259;-76
2021/07/14 09:10:30;;;;;;;4.76;3.75;;;;;;;16.57;88.19;98815.25;2002954;81;20223;-76
2021/07/14 09:13:36;;;;;;;10.32;3.45;;;;;;;16.49;88.63;98819.06;2002321;81;20242;-76
2021/07/14 09:16:39;;;;;;;7.00;3.71;;;;;;;16.46;89.20;98822.66;2001481;77;20475;-77
2021/07/14 09:19:41;;;;;;;7.28;3.46;;;;;;;16.44;89.33;98821.00;2002403;81;20194;-76
2021/07/14 09:22:44;;;;;;;4.21;3.46;;;;;;;16.40;89.66;98822.88;2002003;80;20181;-77
2021/07/14 09:25:55;;;;;;;3.58;3.25;;;;;;;16.40;89.87;98819.41;2002100;81;20267;-76
2021/07/14 09:29:05;;;;;;;4.07;3.04;;;;;;;16.43;89.96;98814.91;2001710;80;20310;-77
2021/07/14 09:32:08;;;;;;;4.69;2.83;;;;;;;16.37;89.74;98814.28;2000730;78;23373;-76
2021/07/14 09:35:11;;;;;;;3.20;2.90;;;;;;;16.40;90.11;98809.78;1998329;80;20182;-77
2021/07/14 09:38:16;;;;;;;4.05;2.89;;;;;;;16.45;90.45;98802.59;1997661;81;20175;-76
2021/07/14 09:41:21;;;;;;;4.47;2.85;;;;;;;16.43;90.08;98795.72;1996655;81;20653;-77
2021/07/14 09:44:24;;;;;;;5.64;2.76;;;;;;;16.43;90.36;98791.31;1997453;81;20186;-76
2021/07/14 09:47:28;;;;;;;5.55;3.34;;;;;;;16.44;90.23;98790.41;1996885;78;22555;-77
2021/07/14 09:50:33;;;;;;;5.40;3.45;;;;;;;16.44;90.09;98794.78;1993597;81;20207;-77
2021/07/14 09:53:39;;;;;;;3.25;2.95;;;;;;;16.49;90.45;98798.09;1997077;81;20224;-77
2021/07/14 09:56:44;;;;;;;4.79;2.61;;;;;;;16.57;90.52;98799.53;1996549;81;20660;-77
2021/07/14 09:59:47;;;;;;;4.05;2.90;;;;;;;16.62;90.04;98805.44;1997360;81;20211;-77
2021/07/14 10:02:56;;;;;;;6.90;2.84;;;;;;;16.69;89.74;98813.09;1993386;78;105468;-77
2021/07/14 10:06:12;;;;;;;5.43;2.84;;;;;;;16.69;89.71;98808.69;1997300;81;20232;-77
2021/07/14 10:09:23;;;;;;;3.66;2.44;;;;;;;16.69;89.18;98819.19;1996559;81;20186;-77
2021/07/14 10:12:27;;;;;;;3.61;2.46;;;;;;;16.59;89.21;98821.28;1996150;81;20601;-77
2021/07/14 10:15:31;;;;;;;3.26;2.49;;;;;;;16.61;89.57;98824.69;1986523;81;1008986;-80
2021/07/14 10:18:34;;;;;;;5.79;2.49;;;;;;;16.61;89.59;98827.31;1998008;81;20191;-79
2021/07/14 10:21:48;;;;;;;4.93;2.50;;;;;;;16.54;89.22;98840.72;2001935;81;20204;-80
2021/07/14 10:24:51;;;;;;;3.45;2.60;;;;;;;16.51;89.56;98839.03;2000668;81;20226;-81
2021/07/14 10:27:56;;;;;;;4.47;2.15;;;;;;;16.51;89.89;98849.53;1999792;81;20178;-80
2021/07/14 10:30:59;;;;;;;2.46;2.26;;;;;;;16.49;89.94;98848.75;2001027;78;20632;-81
2021/07/14 10:34:05;;;;;;;3.10;1.91;;;;;;;16.52;90.03;98850.41;2006624;81;20529;-81
2021/07/14 10:37:09;;;;;;;1.81;1.71;;;;;;;16.59;90.19;98854.50;2011389;81;20177;-82
2021/07/14 10:40:12;;;;;;;2.45;1.73;;;;;;;16.68;90.31;98855.94;2012145;81;20188;-82
2021/07/14 10:43:21;;;;;;;1.73;1.63;;;;;;;16.74;90.15;98853.97;2011676;81;20356;-82
2021/07/14 10:46:25;;;;;;;1.63;1.52;;;;;;;16.79;89.85;98852.00;2010753;78;20182;-81
2021/07/14 10:49:29;;;;;;;1.69;1.50;;;;;;;16.83;89.97;98856.22;2011524;81;20210;-81
2021/07/14 10:52:32;;;;;;;2.03;1.66;;;;;;;16.88;89.97;98856.06;2009598;81;20203;-81
2021/07/14 10:55:35;;;;;;;1.63;1.52;;;;;;;16.88;89.56;98845.59;2010231;80;20182;-80
2021/07/14 10:58:39;;;;;;;1.60;1.50;;;;;;;16.90;89.73;98834.13;2007604;81;20310;-81
2021/07/14 11:01:47;;;;;;;2.39;1.16;;;;;;;16.92;89.44;98829.66;2003862;78;29383;-80
2021/07/14 11:04:52;;;;;;;1.61;1.51;;;;;;;16.96;89.14;98835.63;2001243;81;20217;-81
2021/07/14 11:07:58;;;;;;;2.45;1.30;;;;;;;16.94;89.18;98831.38;2005206;81;20637;-81
2021/07/14 11:11:01;;;;;;;2.47;1.40;;;;;;;16.88;88.99;98835.94;2001609;80;20291;-79
2021/07/14 11:14:09;;;;;;;1.48;1.38;;;;;;;16.82;89.02;98828.28;1996893;81;20206;-80
2021/07/14 11:17:12;;;;;;;1.10;1.10;;;;;;;16.81;89.41;98833.59;2002702;78;20200;-80
2021/07/14 11:20:14;;;;;;;1.27;1.17;;;;;;;16.79;89.52;98838.06;2003994;81;20301;-80
2021/07/14 11:23:25;;;;;;;2.92;1.30;;;;;;;16.75;89.19;98839.09;2007429;80;20271;-81
2021/07/14 11:26:27;;;;;;;1.66;1.30;;;;;;;16.71;89.44;98846.22;2004899;81;20212;-76
2021/07/14 11:29:40;;;;;;;2.88;1.14;;;;;;;16.69;89.52;98842.78;2003807;81;20182;-79
2021/07/14 11:33:01;;;;;;;1.01;1.01;;;;;;;16.69;89.60;98848.03;2006434;78;20878;-81
2021/07/14 11:36:05;;;;;;;0.91;0.91;;;;;;;16.62;89.35;98846.53;2007322;81;20271;-80
2021/07/14 11:39:26;;;;;;;1.61;1.05;;;;;;;16.62;89.51;98844.75;2007101;81;20177;-80
2021/07/14 11:42:56;;;;;;;1.64;0.93;;;;;;;16.66;89.81;98839.38;2004819;81;20239;-81
2021/07/14 11:46:12;;;;;;;2.14;1.00;;;;;;;16.67;90.16;98833.25;2002052;78;22180;-73
2021/07/14 11:49:15;;;;;;;1.35;1.00;;;;;;;16.74;90.25;98845.25;1997272;81;21012;-77
2021/07/14 11:52:43;;;;;;;1.51;0.90;;;;;;;16.74;90.46;98847.88;1997368;81;20248;-76
2021/07/14 11:56:29;;;;;;;1.83;0.80;;;;;;;16.71;90.48;98840.97;1997071;81;20179;-78
2021/07/14 11:59:32;;;;;;;0.95;0.70;;;;;;;16.65;90.68;98838.53;1991946;81;20204;-79
2021/07/14 12:02:34;;;;;;;0.70;0.70;;;;;;;16.66;90.79;98835.00;2002641;78;20457;-78
2021/07/14 12:05:37;;;;;;;3.21;0.80;;;;;;;16.65;91.00;98835.06;2003045;81;20193;-78
2021/07/14 12:08:40;;;;;;;0.80;0.80;;;;;;;16.66;91.07;98839.38;2003454;81;20185;-79
2021/07/14 12:11:43;;;;;;;1.24;0.98;;;;;;;16.56;91.43;98837.13;2002905;81;20287;-79
2021/07/14 12:14:48;;;;;;;3.61;0.80;;;;;;;16.56;91.71;98836.28;2006396;80;20442;-77
2021/07/14 12:17:51;;;;;;;0.70;0.70;;;;;;;16.53;91.73;98833.78;1999799;78;24825;-78
2021/07/14 12:20:54;;;;;;;0.69;0.63;;;;;;;16.49;91.92;98827.78;2003880;81;20214;-81
2021/07/14 12:23:56;;;;;;;0.70;0.60;;;;;;;16.46;91.91;98837.53;1998457;81;20245;-73
2021/07/14 12:27:09;;;;;;;1.80;0.56;;;;;;;16.41;92.35;98837.69;1994588;81;20178;-79
2021/07/14 12:30:18;;;;;;;0.99;0.60;;;;;;;16.41;92.42;98834.22;1997160;81;20216;-78
2021/07/14 12:33:23;;;;;;;0.40;0.40;;;;;;;16.38;92.46;98842.19;2001652;81;20243;-78
2021/07/14 12:36:26;;;;;;;0.68;0.50;;;;;;;16.42;92.63;98841.16;2002157;81;21055;-79
2021/07/14 12:39:32;;;;;;;3.97;0.47;;;;;;;16.39;92.43;98836.91;2002959;81;20201;-79
2021/07/14 12:42:35;;;;;;;0.91;0.43;;;;;;;16.36;92.55;98837.03;2001842;81;20293;-78
2021/07/14 12:45:40;;;;;;;0.36;0.30;;;;;;;16.39;92.69;98839.53;2000827;78;23082;-79
2021/07/14 12:48:42;;;;;;;0.30;0.30;;;;;;;16.40;92.47;98843.00;2002233;81;20266;-78
2021/07/14 12:52:06;;;;;;;0.69;0.43;;;;;;;16.35;92.59;98840.56;2000957;81;20665;-78
2021/07/14 12:55:17;;;;;;;0.47;0.20;;;;;;;16.39;92.67;98838.66;2002186;81;20221;-78
2021/07/14 12:58:22;;;;;;;2.11;0.26;;;;;;;16.38;92.57;98837.81;2002235;81;20189;-79
2021/07/14 13:01:25;;;;;;;0.76;0.30;;;;;;;16.37;92.78;98835.25;2001601;78;20354;-78
2021/07/14 13:04:28;;;;;;;0.41;0.30;;;;;;;16.38;92.87;98827.34;2011345;80;20191;-78
2021/07/14 13:07:32;;;;;;;0.28;0.20;;;;;;;16.33;92.89;98824.00;2002421;81;20181;-79
2021/07/14 13:10:36;;;;;;;0.40;0.25;;;;;;;16.31;92.97;98826.69;2002281;81;20243;-75
2021/07/14 13:13:39;;;;;;;2.06;0.20;;;;;;;16.26;93.11;98823.38;2001412;81;20191;-74
2021/07/14 13:16:42;;;;;;;0.30;0.30;;;;;;;16.29;93.55;98825.91;2001018;78;21158;-75
2021/07/14 13:19:45;;;;;;;0.21;0.20;;;;;;;16.31;93.42;98820.59;2001996;81;20210;-76
2021/07/14 13:22:59;;;;;;;0.40;0.20;;;;;;;16.37;93.66;98824.78;2001716;81;20255;-77
2021/07/14 13:26:03;;;;;;;0.41;0.25;;;;;;;16.41;93.49;98828.97;2000429;81;20178;-75
2021/07/14 13:29:06;;;;;;;0.20;0.20;;;;;;;16.41;93.32;98826.38;2000497;81;20247;-76
2021/07/14 13:32:12;;;;;;;1.05;0.20;;;;;;;16.39;93.57;98831.66;1996921;78;21843;-76
2021/07/14 13:35:19;;;;;;;0.20;0.20;;;;;;;16.41;93.56;98821.13;2000660;81;20280;-76
2021/07/14 13:38:31;;;;;;;0.80;0.20;;;;;;;16.41;93.40;98823.75;2001711;81;20687;-78
2021/07/14 13:41:36;;;;;;;0.11;0.11;;;;;;;16.44;93.35;98828.88;2001305;81;20162;-78
2021/07/14 13:44:41;;;;;;;0.10;0.10;;;;;;;16.46;93.19;98833.13;2001594;81;20810;-78
2021/07/14 13:47:54;;;;;;;1.73;0.16;;;;;;;16.48;93.10;98833.06;2000609;78;22639;-79
2021/07/14 13:50:57;;;;;;;0.45;0.10;;;;;;;16.48;93.13;98831.31;2001268;80;20281;-79
2021/07/14 13:54:13;;;;;;;0.13;0.10;;;;;;;16.50;93.10;98831.25;2005402;81;20274;-80
2021/07/14 13:57:18;;;;;;;1.50;0.20;;;;;;;16.47;93.13;98839.22;2005695;81;20181;-81
2021/07/14 14:00:20;;;;;;;2.95;0.20;;;;;;;16.44;93.10;98831.47;2004260;80;20197;-81
2021/07/14 14:03:23;;;;;;;0.60;0.10;;;;;;;16.44;93.33;98824.47;2007107;77;45748;-83
2021/07/14 14:06:26;;;;;;;0.29;0.10;;;;;;;16.47;93.35;98826.97;2007102;81;20218;-80
2021/07/14 14:09:28;;;;;;;0.43;0.13;;;;;;;16.42;93.13;98817.59;2008086;81;20170;-80
2021/07/14 14:12:39;;;;;;;0.54;0.20;;;;;;;16.39;93.32;98817.72;2007754;81;20251;-81
2021/07/14 14:15:42;;;;;;;0.54;0.10;;;;;;;16.37;93.60;98820.38;2009375;78;20988;-80
2021/07/14 14:18:45;;;;;;;0.13;0.10;;;;;;;16.37;93.76;98812.53;2006408;81;20204;-80
2021/07/14 14:21:53;;;;;;;0.39;0.10;;;;;;;16.39;93.84;98817.72;2005342;81;20166;-81
2021/07/14 14:25:05;;;;;;;0.32;0.32;;;;;;;16.38;94.04;98813.38;2006262;80;20166;-80
2021/07/14 14:28:19;;;;;;;0.68;0.15;;;;;;;16.37;94.16;98823.00;2004622;81;20190;-80
2021/07/14 14:31:21;;;;;;;0.41;0.20;;;;;;;16.35;94.38;98816.97;2003485;77;21816;-79
2021/07/14 14:34:24;;;;;;;0.20;0.10;;;;;;;16.38;94.60;98823.84;2004911;80;20213;-79
2021/07/14 14:37:27;;;;;;;2.42;0.20;;;;;;;16.40;94.87;98827.28;2008202;81;20255;-81
2021/07/14 14:40:30;;;;;;;0.10;0.10;;;;;;;16.43;94.96;98824.53;2009700;81;20243;-82